Time;durP1;ratioP1;P1;durP2;ratioP2;P2;SDS_P1;SDS_P2;PMS_P1;PMS_P2;Temp;Humidity;BMP_temperature;BMP_pressure;BME280_temperature;BME280_humidity;BME280_pressure;Samples;Min_cycle;Max_cycle;Signal;HPM_P1;HPM_P2
2023/10/17 00:02:07;;;;;;;11.77;3.70;;;10.30;99.90;;;;;;4993304;28;20738;-73
2023/10/17 00:04:33;;;;;;;7.97;3.73;;;10.40;99.90;;;;;;4993427;28;20175;-73
2023/10/17 00:07:00;;;;;;;7.10;3.33;;;10.40;99.90;;;;;;4993272;28;20536;-73
2023/10/17 00:09:26;;;;;;;7.50;3.07;;;10.40;99.90;;;;;;4993093;28;20207;-73
2023/10/17 00:14:19;;;;;;;5.90;2.80;;;10.40;99.90;;;;;;4993234;28;20737;-72
2023/10/17 00:16:45;;;;;;;7.47;3.67;;;10.40;99.90;;;;;;4975579;28;20185;-73
2023/10/17 00:19:10;;;;;;;5.93;3.13;;;10.40;99.90;;;;;;4975361;28;20557;-72
2023/10/17 00:21:38;;;;;;;6.53;3.80;;;10.40;99.90;;;;;;4993254;28;20238;-72
2023/10/17 00:24:10;;;;;;;6.97;3.20;;;10.40;99.90;;;;;;4993143;28;20171;-72
2023/10/17 00:26:39;;;;;;;6.10;3.30;;;10.40;99.90;;;;;;4975575;28;20179;-72
2023/10/17 00:29:07;;;;;;;12.27;3.47;;;10.40;99.90;;;;;;4993091;28;20175;-72
2023/10/17 00:31:35;;;;;;;6.13;3.33;;;10.40;99.90;;;;;;4993120;28;20199;-72
2023/10/17 00:34:01;;;;;;;6.90;3.40;;;10.40;99.90;;;;;;4992726;28;20171;-72
2023/10/17 00:36:27;;;;;;;11.33;3.50;;;10.40;99.90;;;;;;4991726;28;20206;-72
2023/10/17 00:38:54;;;;;;;8.53;3.63;;;10.40;99.90;;;;;;4993103;28;20186;-72
2023/10/17 00:41:47;;;;;;;9.43;3.50;;;10.30;99.90;;;;;;4992865;28;20266;-72
2023/10/17 00:44:14;;;;;;;9.10;3.33;;;10.30;99.90;;;;;;4992925;28;20433;-72
2023/10/17 00:46:41;;;;;;;7.47;3.37;;;10.30;99.90;;;;;;4992546;28;20182;-72
2023/10/17 00:49:10;;;;;;;7.53;3.07;;;10.10;99.90;;;;;;4992687;28;20651;-72
2023/10/17 00:51:39;;;;;;;7.80;3.23;;;10.30;99.90;;;;;;4992686;28;20222;-72
2023/10/17 00:54:06;;;;;;;8.50;3.63;;;10.30;99.90;;;;;;4992555;28;20167;-72
2023/10/17 00:56:32;;;;;;;7.47;3.63;;;10.40;99.90;;;;;;4992533;28;20168;-72
2023/10/17 00:59:00;;;;;;;10.80;3.53;;;10.30;99.90;;;;;;4992344;28;20186;-72
2023/10/17 01:01:27;;;;;;;8.33;4.07;;;10.30;99.90;;;;;;4975034;28;20538;-72
2023/10/17 01:03:54;;;;;;;9.63;3.63;;;10.20;99.90;;;;;;4992576;28;20326;-72
2023/10/17 01:08:56;;;;;;;8.20;3.87;;;;;;;;;;4992131;28;20226;-72
2023/10/17 01:11:22;;;;;;;7.73;4.03;;;10.30;99.90;;;;;;4992382;28;20176;-72
2023/10/17 01:13:54;;;;;;;7.60;4.03;;;10.30;99.90;;;;;;4992060;28;20225;-72
2023/10/17 01:16:20;;;;;;;8.33;3.87;;;10.30;99.90;;;;;;4989890;28;20189;-71
2023/10/17 01:18:47;;;;;;;6.60;3.80;;;10.30;99.90;;;;;;4989439;28;20218;-72
2023/10/17 01:21:21;;;;;;;8.97;3.77;;;10.30;99.90;;;;;;4992048;28;20186;-72
2023/10/17 01:23:48;;;;;;;8.67;3.83;;;10.30;99.90;;;;;;4992343;28;20199;-71
2023/10/17 01:26:20;;;;;;;7.80;4.10;;;10.30;99.90;;;;;;4992039;28;20217;-72
2023/10/17 01:28:47;;;;;;;7.40;3.90;;;10.50;99.90;;;;;;4992099;28;20194;-72
2023/10/17 01:31:14;;;;;;;9.17;4.40;;;10.20;99.90;;;;;;4991925;28;20171;-72
2023/10/17 01:33:43;;;;;;;10.03;3.60;;;10.30;99.90;;;;;;4991954;28;20213;-73
2023/10/17 01:36:10;;;;;;;7.17;3.90;;;10.30;99.90;;;;;;4991962;28;20163;-73
2023/10/17 01:38:36;;;;;;;6.43;3.90;;;10.30;99.90;;;;;;4991846;28;20223;-73
2023/10/17 01:41:01;;;;;;;9.93;4.10;;;10.30;99.90;;;;;;4991420;28;20656;-73
2023/10/17 01:43:34;;;;;;;9.63;4.50;;;10.30;99.90;;;;;;4991070;28;20677;-73
2023/10/17 01:46:01;;;;;;;11.10;3.83;;;;;;;;;;4991708;28;20178;-73
2023/10/17 01:48:27;;;;;;;11.53;4.10;;;10.20;99.90;;;;;;4991755;28;20226;-72
2023/10/17 01:50:53;;;;;;;5.40;3.63;;;10.20;99.90;;;;;;4991682;28;20172;-73
2023/10/17 01:53:19;;;;;;;6.60;3.60;;;10.20;99.90;;;;;;4991812;28;20699;-72
2023/10/17 01:56:05;;;;;;;9.03;4.37;;;10.20;99.90;;;;;;4991625;28;20249;-72
2023/10/17 01:58:36;;;;;;;6.20;3.83;;;10.00;99.90;;;;;;4989395;28;20215;-73
2023/10/17 02:01:03;;;;;;;9.10;4.37;;;10.20;99.90;;;;;;4991194;28;20186;-73
2023/10/17 02:03:30;;;;;;;13.03;4.50;;;10.20;99.90;;;;;;4991374;28;20218;-73
2023/10/17 02:05:56;;;;;;;10.43;3.93;;;;;;;;;;4991133;28;20194;-72
2023/10/17 02:08:22;;;;;;;8.60;3.90;;;10.10;99.90;;;;;;4991287;28;20701;-72
2023/10/17 02:10:48;;;;;;;13.90;4.60;;;10.10;99.90;;;;;;4990067;28;20716;-72
2023/10/17 02:13:14;;;;;;;8.30;3.90;;;10.10;99.90;;;;;;4991477;28;20257;-73
2023/10/17 02:15:40;;;;;;;10.47;4.63;;;10.00;99.90;;;;;;4991214;28;20204;-73
2023/10/17 02:18:12;;;;;;;6.97;4.13;;;10.10;99.90;;;;;;4989706;28;20276;-73
2023/10/17 02:20:41;;;;;;;9.93;4.53;;;10.10;99.90;;;;;;4991298;28;20262;-73
2023/10/17 02:23:19;;;;;;;9.60;4.13;;;;;;;;;;4991245;28;20168;-73
2023/10/17 02:25:45;;;;;;;11.87;4.57;;;10.10;99.90;;;;;;4990113;28;20262;-72
2023/10/17 02:28:11;;;;;;;9.30;4.33;;;10.00;99.90;;;;;;4991233;28;20168;-73
2023/10/17 02:30:37;;;;;;;11.17;4.40;;;10.00;99.90;;;;;;4991042;28;20669;-73
2023/10/17 02:33:11;;;;;;;11.27;4.57;;;10.00;99.90;;;;;;4973775;28;20180;-73
2023/10/17 02:35:41;;;;;;;9.67;4.10;;;10.00;99.90;;;;;;4991359;28;20180;-73
2023/10/17 02:38:08;;;;;;;10.73;4.63;;;;;;;;;;4973422;28;20219;-72
2023/10/17 02:40:34;;;;;;;8.33;4.20;;;10.00;99.90;;;;;;4973421;28;20180;-73
2023/10/17 02:43:03;;;;;;;6.70;4.00;;;10.00;99.90;;;;;;4991115;28;20175;-73
2023/10/17 02:45:29;;;;;;;9.57;4.87;;;10.00;99.90;;;;;;4973412;28;20179;-73
2023/10/17 02:47:56;;;;;;;9.70;4.53;;;10.10;99.90;;;;;;4991055;28;20179;-72
2023/10/17 02:52:58;;;;;;;8.27;4.37;;;10.00;99.90;;;;;;4991156;28;20189;-73
2023/10/17 02:55:25;;;;;;;9.67;4.90;;;10.10;99.90;;;;;;4991020;28;20190;-73
2023/10/17 02:57:54;;;;;;;10.97;4.67;;;10.10;99.90;;;;;;4990784;28;20226;-72
2023/10/17 03:00:23;;;;;;;7.60;4.03;;;10.10;99.90;;;;;;4990666;28;20263;-73
2023/10/17 03:02:52;;;;;;;9.40;4.40;;;10.10;99.90;;;;;;4990748;28;20179;-72
2023/10/17 03:05:18;;;;;;;9.70;4.70;;;;;;;;;;4971641;28;20529;-73
2023/10/17 03:07:49;;;;;;;9.67;4.60;;;10.10;99.90;;;;;;4981998;28;20704;-72
2023/10/17 03:10:20;;;;;;;9.20;4.50;;;10.20;99.90;;;;;;4993552;28;20270;-73
2023/10/17 03:13:01;;;;;;;8.97;4.43;;;10.00;99.90;;;;;;4994281;28;20182;-73
2023/10/17 03:15:29;;;;;;;9.20;4.43;;;10.20;99.90;;;;;;4994353;28;20210;-72
2023/10/17 03:18:00;;;;;;;8.37;4.43;;;10.10;99.90;;;;;;4993829;28;20630;-72
2023/10/17 03:20:36;;;;;;;10.30;4.30;;;10.20;99.90;;;;;;4994181;28;20270;-73
2023/10/17 03:23:03;;;;;;;10.83;4.37;;;10.10;99.90;;;;;;4976215;28;20194;-73
2023/10/17 03:25:36;;;;;;;8.40;4.40;;;10.10;99.90;;;;;;4994072;28;20175;-73
2023/10/17 03:28:04;;;;;;;10.77;4.33;;;10.10;99.90;;;;;;4993664;28;20673;-73
2023/10/17 03:30:30;;;;;;;10.60;4.20;;;10.10;99.90;;;;;;4993825;28;20163;-73
2023/10/17 03:35:26;;;;;;;7.33;4.60;;;10.10;99.90;;;;;;4993708;28;20187;-73
2023/10/17 03:37:54;;;;;;;8.67;4.27;;;10.10;99.90;;;;;;4994102;28;20211;-73
2023/10/17 03:40:40;;;;;;;12.13;4.80;;;10.10;99.90;;;;;;4993733;28;20262;-73
2023/10/17 03:43:12;;;;;;;8.90;4.73;;;;;;;;;;4993617;28;20628;-73
2023/10/17 03:45:43;;;;;;;7.60;3.90;;;10.20;99.90;;;;;;4993203;28;20184;-73
2023/10/17 03:48:15;;;;;;;9.00;4.13;;;10.20;99.90;;;;;;4992971;28;20187;-73
2023/10/17 03:50:48;;;;;;;8.40;4.50;;;10.20;99.90;;;;;;4993185;28;20190;-72
2023/10/17 03:55:42;;;;;;;6.53;4.30;;;10.10;99.90;;;;;;4993545;28;20179;-72
2023/10/17 03:58:19;;;;;;;8.77;4.30;;;10.10;99.90;;;;;;4991502;28;20847;-74
2023/10/17 04:00:46;;;;;;;9.17;4.30;;;10.10;99.90;;;;;;4993410;28;20523;-73
2023/10/17 04:03:21;;;;;;;8.47;4.47;;;10.10;99.90;;;;;;4993530;28;20665;-72
2023/10/17 04:09:17;;;;;;;7.43;4.10;;;10.10;99.90;;;;;;4993215;28;20219;-72
2023/10/17 04:13:53;;;;;;;7.87;4.13;;;10.10;99.90;;;;;;4993524;28;20186;-72
2023/10/17 04:16:55;;;;;;;9.93;3.90;;;10.20;99.90;;;;;;4993234;28;20179;-72
2023/10/17 04:19:20;;;;;;;9.17;3.97;;;10.10;99.90;;;;;;4991696;28;20685;-72
2023/10/17 04:24:34;;;;;;;6.63;4.10;;;11.20;99.90;;;;;;4993392;28;20175;-72
2023/10/17 04:27:19;;;;;;;8.30;3.87;;;10.10;99.90;;;;;;4975717;28;20538;-72
2023/10/17 04:29:51;;;;;;;10.83;4.53;;;10.30;99.90;;;;;;4992906;28;20183;-72
2023/10/17 04:32:19;;;;;;;8.67;4.13;;;10.20;99.90;;;;;;4992916;28;20187;-72
2023/10/17 04:34:46;;;;;;;10.67;4.13;;;10.20;99.90;;;;;;4992643;28;20258;-73
2023/10/17 04:37:31;;;;;;;8.50;3.90;;;10.30;99.90;;;;;;4992865;28;20379;-72
2023/10/17 04:39:58;;;;;;;9.33;4.37;;;10.20;99.90;;;;;;4992887;28;20171;-73
2023/10/17 04:45:13;;;;;;;8.30;3.90;;;12.40;99.90;;;;;;4992765;28;20314;-73
2023/10/17 04:47:43;;;;;;;6.93;4.10;;;10.30;99.90;;;;;;4992857;28;20194;-74
2023/10/17 04:50:11;;;;;;;10.17;4.43;;;;;;;;;;4992629;28;20171;-73
2023/10/17 04:52:40;;;;;;;7.93;3.50;;;10.30;99.90;;;;;;4991822;28;20183;-73
2023/10/17 04:55:28;;;;;;;12.27;4.47;;;10.30;99.90;;;;;;4992348;28;20179;-73
2023/10/17 05:06:51;;;;;;;8.60;4.20;;;10.30;99.90;;;;;;4968996;28;20267;-73
2023/10/17 06:17:28;;;;;;;5.83;3.07;;;10.30;99.90;;;;;;4991390;28;20740;-72
2023/10/17 06:19:54;;;;;;;7.00;2.80;;;10.20;99.90;;;;;;4991351;28;20167;-71
2023/10/17 06:24:45;;;;;;;6.47;2.57;;;10.10;99.90;;;;;;4991641;28;20238;-73
2023/10/17 06:30:34;;;;;;;5.47;2.73;;;;;;;;;;4991530;28;20179;-73
2023/10/17 06:33:16;;;;;;;6.07;2.73;;;10.10;99.90;;;;;;4986784;28;20388;-73
2023/10/17 06:35:46;;;;;;;6.10;2.60;;;10.20;99.90;;;;;;4991371;28;20179;-73
2023/10/17 06:38:16;;;;;;;6.77;2.40;;;;;;;;;;4991395;28;20210;-73
2023/10/17 06:40:45;;;;;;;4.93;2.40;;;10.10;99.90;;;;;;4991298;28;20164;-73
2023/10/17 06:43:27;;;;;;;7.17;2.40;;;10.10;99.90;;;;;;4992595;28;20215;-73
2023/10/17 06:46:00;;;;;;;4.13;1.90;;;10.20;99.90;;;;;;4994984;28;20171;-73
2023/10/17 06:48:32;;;;;;;9.87;2.30;;;;;;;;;;4994785;28;20179;-73
2023/10/17 06:53:55;;;;;;;6.43;2.03;;;10.20;99.90;;;;;;4994747;28;20210;-74
2023/10/17 06:56:21;;;;;;;5.47;2.43;;;10.20;99.90;;;;;;4994643;28;20253;-74
2023/10/17 06:58:47;;;;;;;4.50;1.93;;;10.20;99.90;;;;;;4994625;28;20207;-73
2023/10/17 07:01:23;;;;;;;3.47;1.60;;;10.20;99.90;;;;;;4994796;28;20167;-73
2023/10/17 07:03:54;;;;;;;5.37;1.63;;;10.30;99.90;;;;;;4994690;28;20236;-73
2023/10/17 07:06:24;;;;;;;7.43;1.70;;;10.30;99.90;;;;;;4994713;28;20171;-74
2023/10/17 07:08:50;;;;;;;5.37;1.73;;;10.30;99.90;;;;;;4993512;28;20234;-74
2023/10/17 07:16:41;;;;;;;4.73;1.60;;;10.30;99.90;;;;;;4994574;28;20685;-73
2023/10/17 07:22:05;;;;;;;5.57;1.70;;;10.50;99.90;;;;;;4944669;28;20274;-74
2023/10/17 07:24:35;;;;;;;4.77;1.70;;;10.50;99.90;;;;;;4994211;28;20179;-73
2023/10/17 07:27:03;;;;;;;5.20;1.47;;;10.50;99.90;;;;;;4992964;28;20661;-71
2023/10/17 07:29:36;;;;;;;5.73;1.67;;;10.50;99.90;;;;;;4976601;28;20179;-71
2023/10/17 07:32:09;;;;;;;6.47;1.60;;;10.60;99.90;;;;;;4994183;28;20623;-72
2023/10/17 07:34:35;;;;;;;4.43;1.50;;;10.70;99.90;;;;;;4993680;28;20509;-71
2023/10/17 07:39:59;;;;;;;2.90;1.60;;;10.60;99.90;;;;;;4994282;28;20176;-72
2023/10/17 07:42:31;;;;;;;5.53;1.63;;;11.00;99.90;;;;;;4994072;28;20234;-72
2023/10/17 07:45:01;;;;;;;4.13;1.50;;;10.00;99.90;;;;;;4994066;28;20171;-72
2023/10/17 07:47:35;;;;;;;7.97;1.80;;;11.00;99.90;;;;;;4993589;28;20183;-72
2023/10/17 07:50:01;;;;;;;6.30;1.30;;;11.00;99.90;;;;;;4993983;28;20179;-71
2023/10/17 07:52:30;;;;;;;4.63;1.57;;;11.10;99.90;;;;;;4993839;28;20180;-72
2023/10/17 07:55:18;;;;;;;10.37;1.70;;;11.10;99.90;;;;;;4992431;28;20697;-72
2023/10/17 07:57:46;;;;;;;3.50;1.33;;;11.10;99.90;;;;;;4974202;28;20323;-72
2023/10/17 08:00:33;;;;;;;3.97;1.57;;;11.10;99.90;;;;;;4983021;28;20208;-71
2023/10/17 08:03:20;;;;;;;7.50;1.70;;;11.10;99.90;;;;;;4993709;28;20712;-72
2023/10/17 08:05:54;;;;;;;3.90;2.27;;;11.50;99.90;;;;;;4993434;28;20245;-72
2023/10/17 08:08:22;;;;;;;5.93;1.80;;;11.60;99.90;;;;;;4993360;28;20217;-72
2023/10/17 08:10:48;;;;;;;6.83;1.80;;;11.40;99.90;;;;;;4993354;28;20179;-72
2023/10/17 08:13:15;;;;;;;6.30;1.90;;;11.50;99.90;;;;;;4993692;28;20179;-72
2023/10/17 08:15:52;;;;;;;6.20;2.10;;;11.60;99.90;;;;;;4993592;28;20240;-72
2023/10/17 08:18:22;;;;;;;5.67;1.77;;;11.70;99.90;;;;;;4993303;28;20263;-73
2023/10/17 08:23:26;;;;;;;4.57;1.83;;;11.80;99.90;;;;;;4992881;28;20187;-72
2023/10/17 08:25:59;;;;;;;5.93;1.80;;;11.80;99.90;;;;;;4993209;28;20218;-72
2023/10/17 08:28:32;;;;;;;8.67;2.07;;;11.80;99.90;;;;;;4989638;28;20188;-71
2023/10/17 08:31:17;;;;;;;6.57;2.10;;;11.70;99.90;;;;;;4993141;28;20270;-73
2023/10/17 08:33:44;;;;;;;5.23;2.27;;;11.90;99.90;;;;;;4989309;28;20176;-72
2023/10/17 08:36:10;;;;;;;7.87;2.50;;;12.10;24.40;;;;;;4988041;28;20249;-72
2023/10/17 08:38:39;;;;;;;4.60;1.90;;;12.20;1.00;;;;;;4975174;28;20214;-71
2023/10/17 08:41:08;;;;;;;7.90;2.17;;;12.50;1.00;;;;;;4975039;28;20171;-73
2023/10/17 08:43:36;;;;;;;11.73;2.07;;;12.40;1.00;;;;;;4991031;28;20569;-73
2023/10/17 08:46:07;;;;;;;9.53;2.17;;;12.50;1.00;;;;;;4993128;28;20179;-73
2023/10/17 08:48:35;;;;;;;5.90;2.37;;;12.50;1.00;;;;;;4992558;28;20178;-73
2023/10/17 08:51:06;;;;;;;6.53;2.47;;;12.50;1.00;;;;;;4991819;28;20183;-74
2023/10/17 08:53:32;;;;;;;6.07;2.10;;;12.50;1.00;;;;;;4991249;28;20171;-73
2023/10/17 08:55:59;;;;;;;6.70;2.10;;;12.50;1.00;;;;;;4990621;28;20175;-73
2023/10/17 08:58:32;;;;;;;6.17;2.00;;;12.40;1.00;;;;;;4990076;28;20196;-73
2023/10/17 09:01:07;;;;;;;5.00;2.50;;;12.50;1.00;;;;;;4992294;28;20183;-75
2023/10/17 09:03:37;;;;;;;8.68;2.40;;;12.70;1.00;;;;;;4991571;28;20285;-74
2023/10/17 09:08:55;;;;;;;4.77;2.17;;;12.60;1.00;;;;;;4992142;28;20229;-75
2023/10/17 09:11:31;;;;;;;7.43;2.13;;;12.70;99.90;;;;;;4992374;28;20191;-77
2023/10/17 09:14:24;;;;;;;6.07;2.53;;;12.80;99.90;;;;;;4992331;28;20638;-75
2023/10/17 09:17:16;;;;;;;7.35;2.30;;;12.80;99.90;;;;;;4992065;28;20167;-75
2023/10/17 09:19:46;;;;;;;3.70;2.40;;;12.80;1.00;;;;;;4958922;28;20194;-75
2023/10/17 09:22:16;;;;;;;9.07;2.88;;;13.00;1.00;;;;;;4992074;28;20181;-76
2023/10/17 09:24:46;;;;;;;10.18;2.47;;;13.20;1.00;;;;;;4991993;28;20638;-78
2023/10/17 09:27:14;;;;;;;10.07;2.50;;;13.40;99.90;;;;;;4991930;28;20198;-77
2023/10/17 09:29:49;;;;;;;10.87;2.77;;;13.50;99.90;;;;;;4972434;28;20199;-75
2023/10/17 09:32:42;;;;;;;7.40;2.10;;;13.90;1.00;;;;;;4976041;28;20245;-75
2023/10/17 09:35:18;;;;;;;6.70;2.00;;;14.10;1.00;;;;;;4992005;28;20638;-75
2023/10/17 09:37:46;;;;;;;9.95;2.20;;;14.40;1.00;;;;;;4991766;28;20241;-75
2023/10/17 09:40:30;;;;;;;8.13;2.28;;;14.30;1.00;;;;;;4991794;28;20168;-75
2023/10/17 09:42:56;;;;;;;6.20;1.85;;;14.50;1.00;;;;;;4992002;28;20194;-75
2023/10/17 09:45:22;;;;;;;5.72;1.67;;;14.70;1.00;;;;;;4991821;28;20183;-74
2023/10/17 09:47:54;;;;;;;3.47;1.85;;;14.90;99.90;;;;;;4991587;28;20171;-75
2023/10/17 09:50:21;;;;;;;6.22;1.70;;;14.60;99.90;;;;;;4991490;28;20171;-76
2023/10/17 09:52:51;;;;;;;6.50;1.75;;;14.60;1.00;;;;;;4992901;28;20190;-76
2023/10/17 09:55:23;;;;;;;5.30;1.95;;;14.80;99.90;;;;;;4994753;28;20229;-76
2023/10/17 09:57:54;;;;;;;9.05;2.00;;;13.90;1.00;;;;;;4979034;28;20207;-77
2023/10/17 10:00:27;;;;;;;4.95;2.03;;;14.30;1.00;;;;;;4993672;28;20175;-77
2023/10/17 10:02:55;;;;;;;7.13;1.90;;;14.40;1.00;;;;;;4991813;28;20222;-76
2023/10/17 10:05:25;;;;;;;10.70;1.85;;;14.50;1.00;;;;;;4983794;28;20172;-77
2023/10/17 10:07:52;;;;;;;9.70;1.80;;;14.30;1.00;;;;;;4974830;28;20792;-78
2023/10/17 10:10:53;;;;;;;6.10;2.10;;;14.40;1.00;;;;;;4939074;28;20625;-77
2023/10/17 10:13:22;;;;;;;4.57;1.75;;;14.40;1.00;;;;;;4981076;28;20175;-77
2023/10/17 10:16:01;;;;;;;3.92;1.63;;;14.30;99.90;;;;;;4991467;28;20174;-77
2023/10/17 10:18:36;;;;;;;4.95;1.67;;;14.40;1.00;;;;;;4993328;28;20211;-76
2023/10/17 10:21:07;;;;;;;7.82;1.88;;;14.50;1.00;;;;;;4995172;28;20198;-77
2023/10/17 10:23:34;;;;;;;3.40;1.80;;;14.50;1.00;;;;;;4994630;28;20178;-78
2023/10/17 10:26:12;;;;;;;7.88;1.95;;;14.60;1.00;;;;;;4995531;28;20237;-78
2023/10/17 10:28:38;;;;;;;7.55;1.77;;;14.60;1.00;;;;;;4993798;28;20189;-77
2023/10/17 10:31:23;;;;;;;3.75;1.67;;;14.80;1.00;;;;;;4975743;28;20184;-75
2023/10/17 10:33:53;;;;;;;5.15;2.00;;;14.80;1.00;;;;;;4992230;28;20265;-75
2023/10/17 10:36:20;;;;;;;9.85;1.70;;;15.00;1.00;;;;;;4994607;28;20282;-77
2023/10/17 10:38:46;;;;;;;6.80;2.17;;;15.00;1.00;;;;;;4994614;28;20735;-73
2023/10/17 10:41:13;;;;;;;4.68;1.95;;;15.00;99.90;;;;;;4994686;28;20266;-75
2023/10/17 10:43:42;;;;;;;10.75;2.38;;;15.10;99.90;;;;;;4994631;28;20168;-76
2023/10/17 10:46:09;;;;;;;6.97;1.90;;;14.80;99.90;;;;;;4994613;28;20262;-76
2023/10/17 10:48:34;;;;;;;9.02;2.13;;;15.00;99.90;;;;;;4995025;28;20182;-76
2023/10/17 10:51:02;;;;;;;6.28;1.65;;;15.40;1.00;;;;;;4977046;28;20175;-74
2023/10/17 10:53:29;;;;;;;10.30;2.13;;;15.40;1.00;;;;;;4994712;28;20172;-74
2023/10/17 10:56:04;;;;;;;4.30;1.63;;;15.60;1.00;;;;;;4994992;28;20175;-74
2023/10/17 10:58:33;;;;;;;6.57;1.77;;;15.50;1.00;;;;;;4994462;28;20289;-75
2023/10/17 11:01:02;;;;;;;7.00;1.80;;;15.80;1.00;;;;;;4994870;28;20167;-74
2023/10/17 11:03:28;;;;;;;11.35;2.00;;;15.70;99.90;;;;;;4994645;28;20575;-75
2023/10/17 11:05:59;;;;;;;7.43;1.83;;;15.90;99.90;;;;;;4994737;28;20666;-74
2023/10/17 11:08:32;;;;;;;6.78;1.90;;;16.40;1.00;;;;;;4994409;28;20223;-74
2023/10/17 11:11:01;;;;;;;5.05;1.50;;;16.00;1.00;;;;;;4994634;28;20261;-74
2023/10/17 11:13:51;;;;;;;6.22;1.70;;;15.60;1.00;;;;;;4994448;28;20592;-74
2023/10/17 11:16:24;;;;;;;7.20;2.55;;;16.00;1.00;;;;;;4987027;28;20183;-74
2023/10/17 11:18:50;;;;;;;3.88;1.70;;;17.10;1.00;;;;;;4994519;28;20703;-75
2023/10/17 11:21:20;;;;;;;10.88;2.10;;;20.00;99.90;;;;;;4994244;28;20654;-73
2023/10/17 11:23:50;;;;;;;8.65;2.00;;;20.10;99.90;;;;;;4994250;28;20183;-74
2023/10/17 11:26:21;;;;;;;10.50;1.90;;;19.60;1.00;;;;;;4994211;28;20644;-76
2023/10/17 11:28:47;;;;;;;8.30;2.15;;;18.90;1.00;;;;;;4993409;28;20187;-75
2023/10/17 11:31:21;;;;;;;8.18;2.20;;;18.50;99.90;;;;;;4975663;28;20171;-75
2023/10/17 11:34:04;;;;;;;8.55;2.22;;;18.80;1.00;;;;;;4994255;28;20179;-75
2023/10/17 11:36:36;;;;;;;6.80;2.28;;;18.60;1.00;;;;;;4994205;28;20167;-75
2023/10/17 11:39:05;;;;;;;4.82;2.40;;;18.30;1.00;;;;;;4994644;28;20233;-75
2023/10/17 11:41:39;;;;;;;8.93;2.28;;;18.10;1.00;;;;;;4995256;28;20163;-75
2023/10/17 11:44:05;;;;;;;7.05;1.88;;;18.20;1.00;;;;;;4994363;28;20175;-75
2023/10/17 11:46:32;;;;;;;5.57;2.00;;;18.20;1.00;;;;;;4993762;28;20224;-75
2023/10/17 11:49:30;;;;;;;11.05;2.22;;;18.40;1.00;;;;;;4993916;28;20172;-75
2023/10/17 11:52:04;;;;;;;9.43;2.20;;;19.00;1.00;;;;;;4993763;28;20211;-75
2023/10/17 11:54:30;;;;;;;8.73;2.10;;;18.90;1.00;;;;;;4993782;28;20190;-75
2023/10/17 11:57:07;;;;;;;6.88;2.10;;;19.20;1.00;;;;;;4993507;28;20206;-75
2023/10/17 11:59:33;;;;;;;6.20;2.20;;;19.80;1.00;;;;;;4992984;28;20211;-76
2023/10/17 12:02:02;;;;;;;3.63;1.80;;;20.80;99.90;;;;;;4993530;28;20209;-74
2023/10/17 12:04:28;;;;;;;4.93;1.83;;;21.00;99.90;;;;;;4976341;28;20274;-76
2023/10/17 12:06:54;;;;;;;7.65;2.03;;;21.20;99.90;;;;;;4993534;28;20623;-75
2023/10/17 12:11:53;;;;;;;11.70;2.38;;;22.70;99.90;;;;;;4993616;28;20596;-76
2023/10/17 12:14:20;;;;;;;9.18;2.50;;;24.30;99.90;;;;;;4993295;28;20171;-76
2023/10/17 12:16:55;;;;;;;7.78;2.13;;;24.50;9.30;;;;;;4993563;28;20262;-77
2023/10/17 12:19:27;;;;;;;9.25;2.03;;;24.30;1.00;;;;;;4993462;28;20688;-78
2023/10/17 12:22:00;;;;;;;8.00;2.40;;;24.70;1.00;;;;;;4993320;28;20176;-76
2023/10/17 12:24:34;;;;;;;7.15;2.35;;;25.30;1.00;;;;;;4993275;28;20214;-77
2023/10/17 12:27:00;;;;;;;6.90;2.15;;;24.80;1.00;;;;;;4992207;28;20175;-78
2023/10/17 12:29:26;;;;;;;7.47;2.28;;;25.50;1.00;;;;;;4992602;28;20172;-77
2023/10/17 12:31:57;;;;;;;5.47;2.33;;;25.20;1.00;;;;;;4991704;28;20190;-78
2023/10/17 12:34:23;;;;;;;6.18;2.30;;;24.20;99.90;;;;;;4974648;28;20183;-77
2023/10/17 12:36:48;;;;;;;5.30;2.10;;;24.60;1.00;;;;;;4992739;28;20171;-78
2023/10/17 12:39:16;;;;;;;6.18;2.15;;;24.60;1.00;;;;;;4993926;28;20262;-78
2023/10/17 12:41:46;;;;;;;8.38;2.20;;;23.80;1.00;;;;;;4994135;28;20322;-77
2023/10/17 12:44:12;;;;;;;5.07;1.83;;;23.40;1.00;;;;;;4993408;28;20639;-78
2023/10/17 12:46:38;;;;;;;4.35;1.88;;;22.30;1.00;;;;;;4992829;28;20176;-78
2023/10/17 12:49:04;;;;;;;3.40;1.67;;;22.00;1.00;;;;;;4992507;28;20167;-77
2023/10/17 12:51:30;;;;;;;12.75;2.25;;;21.00;1.00;;;;;;4992516;28;20234;-77
2023/10/17 12:53:56;;;;;;;3.30;1.60;;;21.40;1.00;;;;;;4992065;28;20651;-78
2023/10/17 12:56:22;;;;;;;2.95;1.50;;;21.60;1.00;;;;;;4992204;28;20186;-77
2023/10/17 12:58:48;;;;;;;5.03;1.77;;;21.20;1.00;;;;;;4992220;28;20593;-77
2023/10/17 13:01:13;;;;;;;7.47;1.73;;;21.30;49.10;;;;;;4991977;28;20646;-77
2023/10/17 13:03:39;;;;;;;6.60;1.92;;;22.40;1.00;;;;;;4984314;28;20660;-75
2023/10/17 13:06:11;;;;;;;9.88;1.92;;;22.60;1.00;;;;;;4992228;28;20202;-77
2023/10/17 13:08:37;;;;;;;4.53;1.88;;;22.50;1.00;;;;;;4992154;28;20223;-76
2023/10/17 13:11:02;;;;;;;6.10;1.65;;;23.00;1.00;;;;;;4992273;28;20733;-78
2023/10/17 13:13:30;;;;;;;5.43;2.00;;;23.80;1.00;;;;;;4992183;28;20665;-78
2023/10/17 13:15:57;;;;;;;8.90;1.80;;;24.00;97.20;;;;;;4991799;28;20172;-78
2023/10/17 13:18:25;;;;;;;7.55;1.60;;;24.00;1.00;;;;;;4991824;28;20203;-77
2023/10/17 13:20:53;;;;;;;6.10;1.48;;;22.50;10.00;;;;;;4990785;28;20684;-78
2023/10/17 13:23:19;;;;;;;4.72;1.35;;;22.70;1.00;;;;;;4991864;28;20281;-78
2023/10/17 13:25:45;;;;;;;3.78;1.55;;;23.00;1.00;;;;;;4991904;28;20195;-78
2023/10/17 13:28:11;;;;;;;3.53;1.70;;;23.00;1.00;;;;;;4991191;28;20668;-77
2023/10/17 13:30:37;;;;;;;6.07;1.40;;;22.80;1.00;;;;;;4991707;28;20509;-77
2023/10/17 13:33:03;;;;;;;6.38;1.17;;;22.40;1.00;;;;;;4991877;28;20175;-77
2023/10/17 13:35:30;;;;;;;3.20;1.45;;;22.50;1.00;;;;;;4991821;28;20175;-76
2023/10/17 13:37:56;;;;;;;6.15;1.65;;;20.90;1.00;;;;;;4992044;28;20210;-76
2023/10/17 13:40:25;;;;;;;4.20;1.25;;;20.80;1.00;;;;;;4991980;28;20175;-76
2023/10/17 13:42:55;;;;;;;7.22;1.50;;;21.60;1.00;;;;;;4991144;28;20619;-76
2023/10/17 13:45:22;;;;;;;3.75;1.55;;;21.70;1.00;;;;;;4972326;28;20183;-76
2023/10/17 13:47:54;;;;;;;6.03;1.40;;;21.30;1.00;;;;;;4991602;28;20255;-76
2023/10/17 13:50:20;;;;;;;4.30;1.55;;;20.40;21.70;;;;;;4991761;28;20178;-76
2023/10/17 13:52:47;;;;;;;4.38;1.10;;;20.40;99.90;;;;;;4990448;28;20206;-76
2023/10/17 13:55:28;;;;;;;5.03;1.40;;;19.30;99.90;;;;;;4991730;28;20171;-76
2023/10/17 13:58:04;;;;;;;4.50;1.30;;;19.50;99.90;;;;;;4991580;28;20242;-76
2023/10/17 14:03:15;;;;;;;4.40;1.67;;;;;;;;;;4980470;28;20190;-76
2023/10/17 14:05:42;;;;;;;9.05;1.17;;;19.70;99.90;;;;;;4972212;28;20168;-75
2023/10/17 14:08:09;;;;;;;3.70;1.08;;;20.10;99.90;;;;;;4955847;28;20262;-76
2023/10/17 14:10:37;;;;;;;8.38;1.60;;;19.70;99.90;;;;;;4989544;28;20176;-76
2023/10/17 14:13:08;;;;;;;5.47;1.15;;;19.90;99.90;;;;;;4974050;28;20564;-76
2023/10/17 14:15:37;;;;;;;3.33;1.10;;;19.30;99.90;;;;;;4991575;28;20179;-75
2023/10/17 14:18:15;;;;;;;8.18;1.40;;;18.80;99.90;;;;;;4973899;28;20294;-75
2023/10/17 14:21:04;;;;;;;1.83;0.90;;;18.40;99.90;;;;;;4991448;28;20187;-76
2023/10/17 14:23:32;;;;;;;4.47;1.20;;;17.70;99.90;;;;;;4991070;28;20183;-76
2023/10/17 14:26:07;;;;;;;4.10;1.15;;;17.70;99.90;;;;;;4992132;28;20194;-75
2023/10/17 14:28:34;;;;;;;3.88;1.30;;;17.60;99.90;;;;;;4991362;28;20181;-74
2023/10/17 14:31:03;;;;;;;6.85;1.90;;;17.50;99.90;;;;;;4991359;28;20493;-75
2023/10/17 14:33:32;;;;;;;5.72;1.25;;;17.10;1.00;;;;;;4991301;28;20662;-75
2023/10/17 14:36:03;;;;;;;5.45;1.02;;;17.40;1.00;;;;;;4991259;28;20187;-75
2023/10/17 14:38:29;;;;;;;3.63;1.23;;;17.40;1.00;;;;;;4991607;28;20617;-76
2023/10/17 14:40:55;;;;;;;5.88;0.98;;;17.00;1.00;;;;;;4991424;28;20168;-75
2023/10/17 14:43:20;;;;;;;4.57;1.30;;;17.20;1.00;;;;;;4991378;28;20222;-75
2023/10/17 14:45:46;;;;;;;4.32;1.50;;;17.00;44.00;;;;;;4991191;28;20203;-75
2023/10/17 14:48:12;;;;;;;5.00;1.50;;;17.10;99.90;;;;;;4991188;28;20186;-76
2023/10/17 14:50:39;;;;;;;3.95;1.25;;;17.10;1.00;;;;;;4989382;28;20230;-75
2023/10/17 14:53:05;;;;;;;4.00;1.23;;;17.10;99.90;;;;;;4976500;28;20646;-76
2023/10/17 14:55:31;;;;;;;6.25;1.38;;;17.10;99.90;;;;;;4990745;28;20175;-76
2023/10/17 14:57:56;;;;;;;6.85;1.17;;;17.20;99.90;;;;;;4991114;28;20708;-76
2023/10/17 15:00:22;;;;;;;6.38;1.70;;;16.70;1.00;;;;;;4988409;28;20546;-72
2023/10/17 15:02:49;;;;;;;6.75;1.20;;;17.00;1.00;;;;;;4990292;28;20666;-74
2023/10/17 15:05:16;;;;;;;6.22;1.30;;;16.80;1.00;;;;;;4994012;28;20194;-73
2023/10/17 15:07:44;;;;;;;7.28;1.50;;;16.90;1.00;;;;;;4994316;28;20678;-73
2023/10/17 15:10:13;;;;;;;8.02;1.30;;;16.50;99.90;;;;;;4994274;28;20187;-73
2023/10/17 15:12:41;;;;;;;8.55;1.95;;;16.60;1.00;;;;;;4994496;28;20573;-73
2023/10/17 15:15:11;;;;;;;9.65;1.55;;;16.50;1.00;;;;;;4994614;28;20171;-73
2023/10/17 15:17:38;;;;;;;8.02;1.90;;;16.70;99.90;;;;;;4994246;28;20215;-73
2023/10/17 15:20:05;;;;;;;7.10;1.50;;;16.60;1.00;;;;;;4994420;28;20179;-73